sensor_id;sensor_type;location;lat;lon;timestamp;temperature;humidity
6146;DHT22;3104;50.348;7.620;2022-08-24T00:02:05;21.50;99.90
6146;DHT22;3104;50.348;7.620;2022-08-24T00:04:31;21.50;99.90
6146;DHT22;3104;50.348;7.620;2022-08-24T00:06:58;21.50;99.90
6146;DHT22;3104;50.348;7.620;2022-08-24T00:09:24;21.50;99.90
6146;DHT22;3104;50.348;7.620;2022-08-24T00:11:49;21.50;99.90
6146;DHT22;3104;50.348;7.620;2022-08-24T00:14:15;21.50;99.90
6146;DHT22;3104;50.348;7.620;2022-08-24T00:16:41;21.40;99.90
6146;DHT22;3104;50.348;7.620;2022-08-24T00:19:07;21.30;99.90
6146;DHT22;3104;50.348;7.620;2022-08-24T00:21:32;21.40;99.90
6146;DHT22;3104;50.348;7.620;2022-08-24T00:23:58;21.20;99.90
6146;DHT22;3104;50.348;7.620;2022-08-24T00:26:24;21.20;99.90
6146;DHT22;3104;50.348;7.620;2022-08-24T00:28:50;21.20;99.90
6146;DHT22;3104;50.348;7.620;2022-08-24T00:31:15;21.20;99.90
6146;DHT22;3104;50.348;7.620;2022-08-24T00:33:42;21.10;99.90
6146;DHT22;3104;50.348;7.620;2022-08-24T00:36:08;21.20;99.90
6146;DHT22;3104;50.348;7.620;2022-08-24T00:38:33;21.10;99.90
6146;DHT22;3104;50.348;7.620;2022-08-24T00:41:03;21.00;99.90
6146;DHT22;3104;50.348;7.620;2022-08-24T00:43:29;20.90;99.90
6146;DHT22;3104;50.348;7.620;2022-08-24T00:46:12;20.70;99.90
6146;DHT22;3104;50.348;7.620;2022-08-24T00:48:43;20.80;99.90
6146;DHT22;3104;50.348;7.620;2022-08-24T00:51:21;20.90;99.90
6146;DHT22;3104;50.348;7.620;2022-08-24T00:53:55;21.00;99.90
6146;DHT22;3104;50.348;7.620;2022-08-24T00:56:26;21.00;99.90
6146;DHT22;3104;50.348;7.620;2022-08-24T00:58:58;20.90;99.90
6146;DHT22;3104;50.348;7.620;2022-08-24T01:01:25;20.90;99.90
6146;DHT22;3104;50.348;7.620;2022-08-24T01:03:52;20.90;99.90
6146;DHT22;3104;50.348;7.620;2022-08-24T01:06:19;20.80;99.90
6146;DHT22;3104;50.348;7.620;2022-08-24T01:08:45;20.80;99.90
6146;DHT22;3104;50.348;7.620;2022-08-24T01:11:14;20.80;99.90
6146;DHT22;3104;50.348;7.620;2022-08-24T01:13:44;20.80;99.90
6146;DHT22;3104;50.348;7.620;2022-08-24T01:16:11;20.80;99.90
6146;DHT22;3104;50.348;7.620;2022-08-24T01:18:38;20.70;99.90
6146;DHT22;3104;50.348;7.620;2022-08-24T01:21:29;20.70;99.90
6146;DHT22;3104;50.348;7.620;2022-08-24T01:23:59;20.70;99.90
6146;DHT22;3104;50.348;7.620;2022-08-24T01:29:03;20.50;99.90
6146;DHT22;3104;50.348;7.620;2022-08-24T01:31:29;20.30;99.90
6146;DHT22;3104;50.348;7.620;2022-08-24T01:33:55;20.30;99.90
6146;DHT22;3104;50.348;7.620;2022-08-24T01:36:31;20.20;99.90
6146;DHT22;3104;50.348;7.620;2022-08-24T01:39:01;20.20;99.90
6146;DHT22;3104;50.348;7.620;2022-08-24T01:41:28;20.10;99.90
6146;DHT22;3104;50.348;7.620;2022-08-24T01:43:54;20.10;99.90
6146;DHT22;3104;50.348;7.620;2022-08-24T01:46:20;20.20;99.90
6146;DHT22;3104;50.348;7.620;2022-08-24T01:48:46;20.10;99.90
6146;DHT22;3104;50.348;7.620;2022-08-24T01:51:11;20.00;99.90
6146;DHT22;3104;50.348;7.620;2022-08-24T01:53:37;19.90;99.90
6146;DHT22;3104;50.348;7.620;2022-08-24T01:56:02;19.80;99.90
6146;DHT22;3104;50.348;7.620;2022-08-24T01:58:28;19.90;99.90
6146;DHT22;3104;50.348;7.620;2022-08-24T02:00:54;19.80;99.90
6146;DHT22;3104;50.348;7.620;2022-08-24T02:03:19;19.90;99.90
6146;DHT22;3104;50.348;7.620;2022-08-24T02:05:46;19.90;99.90
6146;DHT22;3104;50.348;7.620;2022-08-24T02:08:12;20.00;99.90
6146;DHT22;3104;50.348;7.620;2022-08-24T02:10:38;19.90;99.90
6146;DHT22;3104;50.348;7.620;2022-08-24T02:13:04;19.80;99.90
6146;DHT22;3104;50.348;7.620;2022-08-24T02:15:32;19.70;99.90
6146;DHT22;3104;50.348;7.620;2022-08-24T02:17:59;19.80;99.90
6146;DHT22;3104;50.348;7.620;2022-08-24T02:20:25;19.70;99.90
6146;DHT22;3104;50.348;7.620;2022-08-24T02:22:52;19.60;99.90
6146;DHT22;3104;50.348;7.620;2022-08-24T02:25:19;19.50;99.90
6146;DHT22;3104;50.348;7.620;2022-08-24T02:27:44;19.50;99.90
6146;DHT22;3104;50.348;7.620;2022-08-24T02:30:10;19.50;99.90
6146;DHT22;3104;50.348;7.620;2022-08-24T02:32:36;19.60;99.90
6146;DHT22;3104;50.348;7.620;2022-08-24T02:35:02;19.50;99.90
6146;DHT22;3104;50.348;7.620;2022-08-24T02:37:28;19.50;99.90
6146;DHT22;3104;50.348;7.620;2022-08-24T02:39:53;19.40;99.90
6146;DHT22;3104;50.348;7.620;2022-08-24T02:42:19;19.30;99.90
6146;DHT22;3104;50.348;7.620;2022-08-24T02:44:45;19.30;99.90
6146;DHT22;3104;50.348;7.620;2022-08-24T02:47:10;19.50;99.90
6146;DHT22;3104;50.348;7.620;2022-08-24T02:49:36;19.50;99.90
6146;DHT22;3104;50.348;7.620;2022-08-24T02:52:02;19.40;99.90
6146;DHT22;3104;50.348;7.620;2022-08-24T02:54:28;19.40;99.90
6146;DHT22;3104;50.348;7.620;2022-08-24T02:56:53;19.50;99.90
6146;DHT22;3104;50.348;7.620;2022-08-24T02:59:20;19.50;99.90
6146;DHT22;3104;50.348;7.620;2022-08-24T03:01:46;19.50;99.90
6146;DHT22;3104;50.348;7.620;2022-08-24T03:04:12;19.30;99.90
6146;DHT22;3104;50.348;7.620;2022-08-24T03:06:38;19.20;99.90
6146;DHT22;3104;50.348;7.620;2022-08-24T03:09:03;19.30;99.90
6146;DHT22;3104;50.348;7.620;2022-08-24T03:11:29;19.30;99.90
6146;DHT22;3104;50.348;7.620;2022-08-24T03:13:56;19.10;99.90
6146;DHT22;3104;50.348;7.620;2022-08-24T03:16:24;19.00;99.90
6146;DHT22;3104;50.348;7.620;2022-08-24T03:18:49;18.90;99.90
6146;DHT22;3104;50.348;7.620;2022-08-24T03:21:15;18.80;99.90
6146;DHT22;3104;50.348;7.620;2022-08-24T03:23:41;18.80;99.90
6146;DHT22;3104;50.348;7.620;2022-08-24T03:26:06;18.90;99.90
6146;DHT22;3104;50.348;7.620;2022-08-24T03:28:33;18.80;99.90
6146;DHT22;3104;50.348;7.620;2022-08-24T03:30:59;18.70;99.90
6146;DHT22;3104;50.348;7.620;2022-08-24T03:33:25;18.60;99.90
6146;DHT22;3104;50.348;7.620;2022-08-24T03:35:51;18.70;99.90
6146;DHT22;3104;50.348;7.620;2022-08-24T03:38:18;18.80;99.90
6146;DHT22;3104;50.348;7.620;2022-08-24T03:40:45;18.70;99.90
6146;DHT22;3104;50.348;7.620;2022-08-24T03:43:11;18.80;99.90
6146;DHT22;3104;50.348;7.620;2022-08-24T03:45:57;18.70;99.90
6146;DHT22;3104;50.348;7.620;2022-08-24T03:48:26;18.70;99.90
6146;DHT22;3104;50.348;7.620;2022-08-24T03:50:53;18.70;99.90
6146;DHT22;3104;50.348;7.620;2022-08-24T03:53:18;18.70;99.90
6146;DHT22;3104;50.348;7.620;2022-08-24T03:55:44;18.60;99.90
6146;DHT22;3104;50.348;7.620;2022-08-24T03:58:10;18.50;99.90
6146;DHT22;3104;50.348;7.620;2022-08-24T04:00:35;18.40;99.90
6146;DHT22;3104;50.348;7.620;2022-08-24T04:03:03;18.40;99.90
6146;DHT22;3104;50.348;7.620;2022-08-24T04:05:30;18.50;99.90
6146;DHT22;3104;50.348;7.620;2022-08-24T04:07:56;18.60;99.90
6146;DHT22;3104;50.348;7.620;2022-08-24T04:10:21;18.70;99.90
6146;DHT22;3104;50.348;7.620;2022-08-24T04:12:47;18.80;99.90
6146;DHT22;3104;50.348;7.620;2022-08-24T04:15:13;18.80;99.90
6146;DHT22;3104;50.348;7.620;2022-08-24T04:17:39;18.80;99.90
6146;DHT22;3104;50.348;7.620;2022-08-24T04:20:05;18.80;99.90
6146;DHT22;3104;50.348;7.620;2022-08-24T04:22:31;18.80;99.90
6146;DHT22;3104;50.348;7.620;2022-08-24T04:24:58;18.80;99.90
6146;DHT22;3104;50.348;7.620;2022-08-24T04:27:24;18.80;99.90
6146;DHT22;3104;50.348;7.620;2022-08-24T04:29:50;18.80;99.90
6146;DHT22;3104;50.348;7.620;2022-08-24T04:32:16;18.70;99.90
6146;DHT22;3104;50.348;7.620;2022-08-24T04:34:44;18.60;99.90
6146;DHT22;3104;50.348;7.620;2022-08-24T04:37:11;18.50;99.90
6146;DHT22;3104;50.348;7.620;2022-08-24T04:39:37;18.40;99.90
6146;DHT22;3104;50.348;7.620;2022-08-24T04:42:04;18.40;99.90
6146;DHT22;3104;50.348;7.620;2022-08-24T04:44:30;18.40;99.90
6146;DHT22;3104;50.348;7.620;2022-08-24T04:46:56;18.30;99.90
6146;DHT22;3104;50.348;7.620;2022-08-24T04:49:22;18.30;99.90
6146;DHT22;3104;50.348;7.620;2022-08-24T04:51:48;18.40;99.90
6146;DHT22;3104;50.348;7.620;2022-08-24T04:54:14;18.30;99.90
6146;DHT22;3104;50.348;7.620;2022-08-24T04:56:39;18.30;99.90
6146;DHT22;3104;50.348;7.620;2022-08-24T04:59:05;18.30;99.90
6146;DHT22;3104;50.348;7.620;2022-08-24T05:01:31;18.30;99.90
6146;DHT22;3104;50.348;7.620;2022-08-24T05:03:58;18.30;99.90
6146;DHT22;3104;50.348;7.620;2022-08-24T05:06:26;18.40;99.90
6146;DHT22;3104;50.348;7.620;2022-08-24T05:08:53;18.40;99.90
6146;DHT22;3104;50.348;7.620;2022-08-24T05:11:20;18.40;99.90
6146;DHT22;3104;50.348;7.620;2022-08-24T05:13:46;18.30;99.90
6146;DHT22;3104;50.348;7.620;2022-08-24T05:16:15;18.40;99.90
6146;DHT22;3104;50.348;7.620;2022-08-24T05:18:42;18.30;99.90
6146;DHT22;3104;50.348;7.620;2022-08-24T05:21:09;18.30;99.90
6146;DHT22;3104;50.348;7.620;2022-08-24T05:23:35;18.40;99.90
6146;DHT22;3104;50.348;7.620;2022-08-24T05:26:13;18.30;99.90
6146;DHT22;3104;50.348;7.620;2022-08-24T05:28:40;18.30;99.90
6146;DHT22;3104;50.348;7.620;2022-08-24T05:31:18;18.60;99.90
6146;DHT22;3104;50.348;7.620;2022-08-24T05:33:45;18.50;99.90
6146;DHT22;3104;50.348;7.620;2022-08-24T05:38:45;18.60;99.90
6146;DHT22;3104;50.348;7.620;2022-08-24T05:41:12;18.70;99.90
6146;DHT22;3104;50.348;7.620;2022-08-24T05:43:38;18.70;99.90
6146;DHT22;3104;50.348;7.620;2022-08-24T05:46:04;18.80;99.90
6146;DHT22;3104;50.348;7.620;2022-08-24T05:48:30;18.90;99.90
6146;DHT22;3104;50.348;7.620;2022-08-24T05:50:56;19.00;99.90
6146;DHT22;3104;50.348;7.620;2022-08-24T05:53:23;19.00;99.90
6146;DHT22;3104;50.348;7.620;2022-08-24T05:55:49;19.00;99.90
6146;DHT22;3104;50.348;7.620;2022-08-24T05:58:15;19.10;99.90
6146;DHT22;3104;50.348;7.620;2022-08-24T06:00:40;19.20;99.90
6146;DHT22;3104;50.348;7.620;2022-08-24T06:03:10;19.10;99.90
6146;DHT22;3104;50.348;7.620;2022-08-24T06:05:39;19.10;99.90
6146;DHT22;3104;50.348;7.620;2022-08-24T06:08:04;19.00;99.90
6146;DHT22;3104;50.348;7.620;2022-08-24T06:10:30;19.10;99.90
6146;DHT22;3104;50.348;7.620;2022-08-24T06:12:56;19.20;99.90
6146;DHT22;3104;50.348;7.620;2022-08-24T06:15:22;19.20;99.90
6146;DHT22;3104;50.348;7.620;2022-08-24T06:17:48;19.20;99.90
6146;DHT22;3104;50.348;7.620;2022-08-24T06:20:14;19.30;99.90
6146;DHT22;3104;50.348;7.620;2022-08-24T06:22:42;19.20;99.90
6146;DHT22;3104;50.348;7.620;2022-08-24T06:25:08;19.20;99.90
6146;DHT22;3104;50.348;7.620;2022-08-24T06:27:52;19.10;99.90
6146;DHT22;3104;50.348;7.620;2022-08-24T06:30:17;19.10;99.90
6146;DHT22;3104;50.348;7.620;2022-08-24T06:32:43;19.10;99.90
6146;DHT22;3104;50.348;7.620;2022-08-24T06:35:09;19.10;99.90
6146;DHT22;3104;50.348;7.620;2022-08-24T06:37:34;19.20;99.90
6146;DHT22;3104;50.348;7.620;2022-08-24T06:40:00;19.30;99.90
6146;DHT22;3104;50.348;7.620;2022-08-24T06:42:25;19.40;99.90
6146;DHT22;3104;50.348;7.620;2022-08-24T06:44:53;19.40;99.90
6146;DHT22;3104;50.348;7.620;2022-08-24T06:47:19;19.50;99.90
6146;DHT22;3104;50.348;7.620;2022-08-24T06:49:45;19.60;99.90
6146;DHT22;3104;50.348;7.620;2022-08-24T06:52:11;19.70;99.90
6146;DHT22;3104;50.348;7.620;2022-08-24T06:54:37;19.90;99.90
6146;DHT22;3104;50.348;7.620;2022-08-24T06:57:04;20.20;99.90
6146;DHT22;3104;50.348;7.620;2022-08-24T06:59:31;20.40;99.90
6146;DHT22;3104;50.348;7.620;2022-08-24T07:01:58;20.40;99.90
6146;DHT22;3104;50.348;7.620;2022-08-24T07:04:25;20.50;99.90
6146;DHT22;3104;50.348;7.620;2022-08-24T07:06:53;20.60;99.90
6146;DHT22;3104;50.348;7.620;2022-08-24T07:09:19;20.70;99.90
6146;DHT22;3104;50.348;7.620;2022-08-24T07:11:49;20.80;99.90
6146;DHT22;3104;50.348;7.620;2022-08-24T07:14:15;21.00;99.90
6146;DHT22;3104;50.348;7.620;2022-08-24T07:16:41;21.10;99.90
6146;DHT22;3104;50.348;7.620;2022-08-24T07:19:07;21.30;99.90
6146;DHT22;3104;50.348;7.620;2022-08-24T07:21:33;21.30;99.90
6146;DHT22;3104;50.348;7.620;2022-08-24T07:24:00;21.50;99.90
6146;DHT22;3104;50.348;7.620;2022-08-24T07:26:29;21.60;99.90
6146;DHT22;3104;50.348;7.620;2022-08-24T07:29:01;21.60;99.90
6146;DHT22;3104;50.348;7.620;2022-08-24T07:31:35;21.40;99.90
6146;DHT22;3104;50.348;7.620;2022-08-24T07:34:02;21.30;99.90
6146;DHT22;3104;50.348;7.620;2022-08-24T07:36:28;21.30;99.90
6146;DHT22;3104;50.348;7.620;2022-08-24T07:38:55;21.30;99.90
6146;DHT22;3104;50.348;7.620;2022-08-24T07:41:25;21.30;99.90
6146;DHT22;3104;50.348;7.620;2022-08-24T07:43:55;21.40;99.90
6146;DHT22;3104;50.348;7.620;2022-08-24T07:46:21;21.60;99.90
6146;DHT22;3104;50.348;7.620;2022-08-24T07:48:47;21.80;99.90
6146;DHT22;3104;50.348;7.620;2022-08-24T07:51:16;22.10;99.90
6146;DHT22;3104;50.348;7.620;2022-08-24T07:53:44;22.50;99.90
6146;DHT22;3104;50.348;7.620;2022-08-24T07:56:11;22.50;99.90
6146;DHT22;3104;50.348;7.620;2022-08-24T07:58:37;22.70;99.90
6146;DHT22;3104;50.348;7.620;2022-08-24T08:01:12;22.80;99.90
6146;DHT22;3104;50.348;7.620;2022-08-24T08:03:38;23.00;99.90
6146;DHT22;3104;50.348;7.620;2022-08-24T08:06:08;23.00;99.90
6146;DHT22;3104;50.348;7.620;2022-08-24T08:08:35;23.00;99.90
6146;DHT22;3104;50.348;7.620;2022-08-24T08:11:01;23.20;99.90
6146;DHT22;3104;50.348;7.620;2022-08-24T08:13:29;23.30;99.90
6146;DHT22;3104;50.348;7.620;2022-08-24T08:15:56;23.50;99.90
6146;DHT22;3104;50.348;7.620;2022-08-24T08:18:22;23.70;99.90
6146;DHT22;3104;50.348;7.620;2022-08-24T08:20:48;23.80;99.90
6146;DHT22;3104;50.348;7.620;2022-08-24T08:23:14;23.80;99.90
6146;DHT22;3104;50.348;7.620;2022-08-24T08:25:59;24.10;99.90
6146;DHT22;3104;50.348;7.620;2022-08-24T08:28:28;24.30;99.90
6146;DHT22;3104;50.348;7.620;2022-08-24T08:31:01;24.50;99.90
6146;DHT22;3104;50.348;7.620;2022-08-24T08:33:27;24.60;99.60
6146;DHT22;3104;50.348;7.620;2022-08-24T08:36:17;24.70;99.70
6146;DHT22;3104;50.348;7.620;2022-08-24T08:38:43;25.30;99.40
6146;DHT22;3104;50.348;7.620;2022-08-24T08:43:49;26.00;97.20
6146;DHT22;3104;50.348;7.620;2022-08-24T08:46:23;26.60;96.20
6146;DHT22;3104;50.348;7.620;2022-08-24T08:49:08;26.70;96.10
6146;DHT22;3104;50.348;7.620;2022-08-24T08:57:37;27.30;94.60
6146;DHT22;3104;50.348;7.620;2022-08-24T09:00:16;27.10;94.40
6146;DHT22;3104;50.348;7.620;2022-08-24T09:13:39;28.60;91.70
6146;DHT22;3104;50.348;7.620;2022-08-24T09:18:51;29.60;91.80
6146;DHT22;3104;50.348;7.620;2022-08-24T09:33:07;30.30;88.20
6146;DHT22;3104;50.348;7.620;2022-08-24T10:06:24;31.50;82.10
6146;DHT22;3104;50.348;7.620;2022-08-24T10:17:21;32.90;79.50
6146;DHT22;3104;50.348;7.620;2022-08-24T10:26:10;32.70;77.00
6146;DHT22;3104;50.348;7.620;2022-08-24T10:29:06;33.50;76.00
6146;DHT22;3104;50.348;7.620;2022-08-24T10:32:06;33.60;71.20
6146;DHT22;3104;50.348;7.620;2022-08-24T10:34:55;33.20;69.70
6146;DHT22;3104;50.348;7.620;2022-08-24T10:38:04;33.00;68.60
6146;DHT22;3104;50.348;7.620;2022-08-24T10:40:58;33.50;69.40
6146;DHT22;3104;50.348;7.620;2022-08-24T10:47:00;33.50;68.70
6146;DHT22;3104;50.348;7.620;2022-08-24T10:54:42;33.70;65.90
6146;DHT22;3104;50.348;7.620;2022-08-24T10:57:34;34.00;66.20
6146;DHT22;3104;50.348;7.620;2022-08-24T11:00:09;33.90;64.00
6146;DHT22;3104;50.348;7.620;2022-08-24T11:02:40;34.30;64.50
6146;DHT22;3104;50.348;7.620;2022-08-24T11:05:12;33.90;63.00
6146;DHT22;3104;50.348;7.620;2022-08-24T11:10:35;34.00;60.90
6146;DHT22;3104;50.348;7.620;2022-08-24T11:15:52;34.60;55.30
6146;DHT22;3104;50.348;7.620;2022-08-24T11:18:17;33.70;54.50
6146;DHT22;3104;50.348;7.620;2022-08-24T11:20:46;33.90;55.40
6146;DHT22;3104;50.348;7.620;2022-08-24T11:23:20;34.80;53.50
6146;DHT22;3104;50.348;7.620;2022-08-24T11:26:17;35.10;53.20
6146;DHT22;3104;50.348;7.620;2022-08-24T11:28:46;35.20;51.70
6146;DHT22;3104;50.348;7.620;2022-08-24T11:31:38;34.20;51.40
6146;DHT22;3104;50.348;7.620;2022-08-24T11:34:12;34.80;51.50
6146;DHT22;3104;50.348;7.620;2022-08-24T11:36:38;34.70;51.70
6146;DHT22;3104;50.348;7.620;2022-08-24T11:39:29;34.90;50.10
6146;DHT22;3104;50.348;7.620;2022-08-24T11:45:12;35.80;50.50
6146;DHT22;3104;50.348;7.620;2022-08-24T11:53:03;35.60;46.60
6146;DHT22;3104;50.348;7.620;2022-08-24T11:55:45;34.40;45.40
6146;DHT22;3104;50.348;7.620;2022-08-24T12:20:31;35.40;44.50
6146;DHT22;3104;50.348;7.620;2022-08-24T12:23:02;35.90;43.40
6146;DHT22;3104;50.348;7.620;2022-08-24T12:25:30;34.40;42.70
6146;DHT22;3104;50.348;7.620;2022-08-24T12:28:20;34.40;43.00
6146;DHT22;3104;50.348;7.620;2022-08-24T12:30:47;35.50;43.60
6146;DHT22;3104;50.348;7.620;2022-08-24T12:33:14;34.70;42.10
6146;DHT22;3104;50.348;7.620;2022-08-24T12:35:47;34.50;42.00
6146;DHT22;3104;50.348;7.620;2022-08-24T12:41:29;34.40;43.90
6146;DHT22;3104;50.348;7.620;2022-08-24T12:43:58;34.80;43.10
6146;DHT22;3104;50.348;7.620;2022-08-24T12:46:26;35.50;42.50
6146;DHT22;3104;50.348;7.620;2022-08-24T12:51:36;35.70;41.50
6146;DHT22;3104;50.348;7.620;2022-08-24T13:04:58;35.30;39.50
6146;DHT22;3104;50.348;7.620;2022-08-24T13:15:21;35.80;40.40
6146;DHT22;3104;50.348;7.620;2022-08-24T13:18:25;36.20;40.80
6146;DHT22;3104;50.348;7.620;2022-08-24T13:28:44;34.60;39.10
6146;DHT22;3104;50.348;7.620;2022-08-24T13:33:57;33.80;39.80
6146;DHT22;3104;50.348;7.620;2022-08-24T13:39:39;33.80;40.70
6146;DHT22;3104;50.348;7.620;2022-08-24T13:42:13;34.50;40.40
6146;DHT22;3104;50.348;7.620;2022-08-24T13:44:55;35.10;39.90
6146;DHT22;3104;50.348;7.620;2022-08-24T13:47:58;35.40;39.60
6146;DHT22;3104;50.348;7.620;2022-08-24T13:53:32;35.50;40.10
6146;DHT22;3104;50.348;7.620;2022-08-24T13:58:43;35.90;38.00
6146;DHT22;3104;50.348;7.620;2022-08-24T14:07:08;35.40;37.30
6146;DHT22;3104;50.348;7.620;2022-08-24T14:12:52;34.60;38.90
6146;DHT22;3104;50.348;7.620;2022-08-24T14:19:11;33.90;38.90
6146;DHT22;3104;50.348;7.620;2022-08-24T14:21:48;34.10;40.00
6146;DHT22;3104;50.348;7.620;2022-08-24T14:24:42;34.80;40.00
6146;DHT22;3104;50.348;7.620;2022-08-24T14:35:44;34.00;38.90
6146;DHT22;3104;50.348;7.620;2022-08-24T14:44:04;33.80;38.50
6146;DHT22;3104;50.348;7.620;2022-08-24T14:46:53;33.50;38.90
6146;DHT22;3104;50.348;7.620;2022-08-24T14:49:41;34.40;39.40
6146;DHT22;3104;50.348;7.620;2022-08-24T14:52:21;34.80;38.70
6146;DHT22;3104;50.348;7.620;2022-08-24T15:00:20;34.60;40.10
6146;DHT22;3104;50.348;7.620;2022-08-24T15:10:53;33.30;40.70
6146;DHT22;3104;50.348;7.620;2022-08-24T15:13:46;33.00;39.40
6146;DHT22;3104;50.348;7.620;2022-08-24T15:16:21;33.10;40.50
6146;DHT22;3104;50.348;7.620;2022-08-24T15:27:10;32.90;42.00
6146;DHT22;3104;50.348;7.620;2022-08-24T15:29:55;32.50;42.20
6146;DHT22;3104;50.348;7.620;2022-08-24T15:32:23;32.10;42.90
6146;DHT22;3104;50.348;7.620;2022-08-24T15:34:53;32.10;43.40
6146;DHT22;3104;50.348;7.620;2022-08-24T15:37:34;31.80;43.90
6146;DHT22;3104;50.348;7.620;2022-08-24T15:40:03;32.00;44.60
6146;DHT22;3104;50.348;7.620;2022-08-24T15:42:31;31.90;44.70
6146;DHT22;3104;50.348;7.620;2022-08-24T15:45:02;32.10;45.00
6146;DHT22;3104;50.348;7.620;2022-08-24T15:47:34;32.10;45.70
6146;DHT22;3104;50.348;7.620;2022-08-24T15:50:04;31.80;45.60
6146;DHT22;3104;50.348;7.620;2022-08-24T15:52:41;31.90;44.90
6146;DHT22;3104;50.348;7.620;2022-08-24T15:57:51;32.00;45.30
6146;DHT22;3104;50.348;7.620;2022-08-24T16:00:21;32.20;44.40
6146;DHT22;3104;50.348;7.620;2022-08-24T16:03:25;32.20;44.30
6146;DHT22;3104;50.348;7.620;2022-08-24T16:05:54;32.30;45.00
6146;DHT22;3104;50.348;7.620;2022-08-24T16:08:21;32.20;44.70
6146;DHT22;3104;50.348;7.620;2022-08-24T16:10:55;32.60;45.20
6146;DHT22;3104;50.348;7.620;2022-08-24T16:13:27;32.40;44.30
6146;DHT22;3104;50.348;7.620;2022-08-24T16:16:06;32.80;44.70
6146;DHT22;3104;50.348;7.620;2022-08-24T16:18:55;33.00;43.60
6146;DHT22;3104;50.348;7.620;2022-08-24T16:21:41;32.80;44.20
6146;DHT22;3104;50.348;7.620;2022-08-24T16:24:25;32.80;44.00
6146;DHT22;3104;50.348;7.620;2022-08-24T16:27:05;33.20;43.60
6146;DHT22;3104;50.348;7.620;2022-08-24T16:32:25;33.60;43.30
6146;DHT22;3104;50.348;7.620;2022-08-24T16:35:14;33.20;43.00
6146;DHT22;3104;50.348;7.620;2022-08-24T16:37:40;33.30;42.90
6146;DHT22;3104;50.348;7.620;2022-08-24T16:40:06;33.10;42.30
6146;DHT22;3104;50.348;7.620;2022-08-24T16:42:33;32.60;42.30
6146;DHT22;3104;50.348;7.620;2022-08-24T16:44:59;32.30;43.50
6146;DHT22;3104;50.348;7.620;2022-08-24T16:47:27;32.50;42.60
6146;DHT22;3104;50.348;7.620;2022-08-24T16:49:53;32.50;42.90
6146;DHT22;3104;50.348;7.620;2022-08-24T16:52:19;33.00;43.90
6146;DHT22;3104;50.348;7.620;2022-08-24T16:54:45;33.00;42.70
6146;DHT22;3104;50.348;7.620;2022-08-24T16:57:20;33.00;43.30
6146;DHT22;3104;50.348;7.620;2022-08-24T16:59:48;33.00;43.10
6146;DHT22;3104;50.348;7.620;2022-08-24T17:02:14;33.00;42.60
6146;DHT22;3104;50.348;7.620;2022-08-24T17:04:41;32.80;42.60
6146;DHT22;3104;50.348;7.620;2022-08-24T17:07:11;32.90;41.80
6146;DHT22;3104;50.348;7.620;2022-08-24T17:09:39;33.00;42.10
6146;DHT22;3104;50.348;7.620;2022-08-24T17:12:06;32.70;42.30
6146;DHT22;3104;50.348;7.620;2022-08-24T17:14:34;32.50;42.10
6146;DHT22;3104;50.348;7.620;2022-08-24T17:17:02;32.90;42.30
6146;DHT22;3104;50.348;7.620;2022-08-24T17:19:29;32.80;41.90
6146;DHT22;3104;50.348;7.620;2022-08-24T17:21:56;33.00;42.30
6146;DHT22;3104;50.348;7.620;2022-08-24T17:24:22;33.20;41.80
6146;DHT22;3104;50.348;7.620;2022-08-24T17:26:49;32.80;41.80
6146;DHT22;3104;50.348;7.620;2022-08-24T17:29:18;32.40;41.60
6146;DHT22;3104;50.348;7.620;2022-08-24T17:31:44;32.10;42.50
6146;DHT22;3104;50.348;7.620;2022-08-24T17:34:10;31.90;42.00
6146;DHT22;3104;50.348;7.620;2022-08-24T17:36:37;31.80;42.70
6146;DHT22;3104;50.348;7.620;2022-08-24T17:39:04;31.80;42.70
6146;DHT22;3104;50.348;7.620;2022-08-24T17:41:32;31.60;42.90
6146;DHT22;3104;50.348;7.620;2022-08-24T17:43:59;31.60;43.00
6146;DHT22;3104;50.348;7.620;2022-08-24T17:46:26;31.50;42.80
6146;DHT22;3104;50.348;7.620;2022-08-24T17:48:53;31.50;43.10
6146;DHT22;3104;50.348;7.620;2022-08-24T17:51:20;31.50;43.70
6146;DHT22;3104;50.348;7.620;2022-08-24T17:53:46;31.60;43.40
6146;DHT22;3104;50.348;7.620;2022-08-24T17:56:12;31.40;43.40
6146;DHT22;3104;50.348;7.620;2022-08-24T17:58:39;31.40;43.70
6146;DHT22;3104;50.348;7.620;2022-08-24T18:01:24;31.30;44.00
6146;DHT22;3104;50.348;7.620;2022-08-24T18:03:49;31.30;44.40
6146;DHT22;3104;50.348;7.620;2022-08-24T18:06:17;31.30;45.60
6146;DHT22;3104;50.348;7.620;2022-08-24T18:08:44;31.20;45.30
6146;DHT22;3104;50.348;7.620;2022-08-24T18:11:10;31.30;46.00
6146;DHT22;3104;50.348;7.620;2022-08-24T18:13:35;31.30;46.70
6146;DHT22;3104;50.348;7.620;2022-08-24T18:16:02;31.40;47.10
6146;DHT22;3104;50.348;7.620;2022-08-24T18:18:28;31.40;47.50
6146;DHT22;3104;50.348;7.620;2022-08-24T18:20:53;31.30;48.00
6146;DHT22;3104;50.348;7.620;2022-08-24T18:23:19;31.20;48.30
6146;DHT22;3104;50.348;7.620;2022-08-24T18:25:49;31.00;47.90
6146;DHT22;3104;50.348;7.620;2022-08-24T18:28:16;30.90;48.10
6146;DHT22;3104;50.348;7.620;2022-08-24T18:30:45;30.70;48.20
6146;DHT22;3104;50.348;7.620;2022-08-24T18:33:10;30.00;48.10
6146;DHT22;3104;50.348;7.620;2022-08-24T18:35:36;29.80;49.40
6146;DHT22;3104;50.348;7.620;2022-08-24T18:38:02;29.50;50.00
6146;DHT22;3104;50.348;7.620;2022-08-24T18:40:27;29.40;50.60
6146;DHT22;3104;50.348;7.620;2022-08-24T18:42:54;29.50;50.60
6146;DHT22;3104;50.348;7.620;2022-08-24T18:45:29;29.50;51.10
6146;DHT22;3104;50.348;7.620;2022-08-24T18:47:55;29.60;51.30
6146;DHT22;3104;50.348;7.620;2022-08-24T18:50:21;29.60;51.80
6146;DHT22;3104;50.348;7.620;2022-08-24T18:52:46;29.50;52.40
6146;DHT22;3104;50.348;7.620;2022-08-24T18:55:12;29.40;52.40
6146;DHT22;3104;50.348;7.620;2022-08-24T18:57:38;29.00;51.80
6146;DHT22;3104;50.348;7.620;2022-08-24T19:00:05;28.60;52.30
6146;DHT22;3104;50.348;7.620;2022-08-24T19:02:30;28.50;53.00
6146;DHT22;3104;50.348;7.620;2022-08-24T19:05:20;28.40;53.10
6146;DHT22;3104;50.348;7.620;2022-08-24T19:07:48;28.30;53.10
6146;DHT22;3104;50.348;7.620;2022-08-24T19:10:17;28.20;53.30
6146;DHT22;3104;50.348;7.620;2022-08-24T19:12:48;28.20;53.40
6146;DHT22;3104;50.348;7.620;2022-08-24T19:15:16;28.30;53.40
6146;DHT22;3104;50.348;7.620;2022-08-24T19:17:42;28.40;53.50
6146;DHT22;3104;50.348;7.620;2022-08-24T19:20:09;28.30;53.80
6146;DHT22;3104;50.348;7.620;2022-08-24T19:22:37;28.20;54.30
6146;DHT22;3104;50.348;7.620;2022-08-24T19:25:03;28.30;54.40
6146;DHT22;3104;50.348;7.620;2022-08-24T19:27:30;28.20;54.70
6146;DHT22;3104;50.348;7.620;2022-08-24T19:29:56;28.30;54.80
6146;DHT22;3104;50.348;7.620;2022-08-24T19:32:25;28.00;55.20
6146;DHT22;3104;50.348;7.620;2022-08-24T19:34:52;27.80;55.80
6146;DHT22;3104;50.348;7.620;2022-08-24T19:37:18;27.70;56.00
6146;DHT22;3104;50.348;7.620;2022-08-24T19:39:45;27.80;56.40
6146;DHT22;3104;50.348;7.620;2022-08-24T19:42:11;28.00;56.10
6146;DHT22;3104;50.348;7.620;2022-08-24T19:44:37;28.00;56.00
6146;DHT22;3104;50.348;7.620;2022-08-24T19:47:21;28.20;56.00
6146;DHT22;3104;50.348;7.620;2022-08-24T19:49:47;28.20;56.20
6146;DHT22;3104;50.348;7.620;2022-08-24T19:52:13;28.00;56.50
6146;DHT22;3104;50.348;7.620;2022-08-24T19:54:42;27.70;56.80
6146;DHT22;3104;50.348;7.620;2022-08-24T19:57:41;27.60;57.30
6146;DHT22;3104;50.348;7.620;2022-08-24T20:02:43;27.70;57.80
6146;DHT22;3104;50.348;7.620;2022-08-24T20:05:09;27.60;58.20
6146;DHT22;3104;50.348;7.620;2022-08-24T20:07:35;27.60;58.50
6146;DHT22;3104;50.348;7.620;2022-08-24T20:10:00;27.60;58.60